sensor_id;sensor_type;location;lat;lon;timestamp;pressure;altitude;pressure_sealevel;temperature;humidity
54882;BME280;40775;51.448;4.742;2024-01-27T00:00:23;103467.78;;;4.45;100.00
54882;BME280;40775;51.448;4.742;2024-01-27T00:02:50;103470.53;;;4.47;100.00
54882;BME280;40775;51.448;4.742;2024-01-27T00:05:18;103469.22;;;4.42;100.00
54882;BME280;40775;51.448;4.742;2024-01-27T00:07:47;103471.19;;;4.44;100.00
54882;BME280;40775;51.448;4.742;2024-01-27T00:10:14;103471.56;;;4.39;100.00
54882;BME280;40775;51.448;4.742;2024-01-27T00:12:41;103471.81;;;4.42;100.00
54882;BME280;40775;51.448;4.742;2024-01-27T00:15:09;103471.56;;;4.39;100.00
54882;BME280;40775;51.448;4.742;2024-01-27T00:17:36;103471.56;;;4.39;100.00
54882;BME280;40775;51.448;4.742;2024-01-27T00:20:03;103480.75;;;4.35;100.00
54882;BME280;40775;51.448;4.742;2024-01-27T00:22:30;103480.75;;;4.35;100.00
54882;BME280;40775;51.448;4.742;2024-01-27T00:24:57;103483.88;;;4.31;100.00
54882;BME280;40775;51.448;4.742;2024-01-27T00:27:24;103476.06;;;4.31;100.00
54882;BME280;40775;51.448;4.742;2024-01-27T00:29:52;103474.75;;;4.26;100.00
54882;BME280;40775;51.448;4.742;2024-01-27T00:32:19;103473.84;;;4.25;100.00
54882;BME280;40775;51.448;4.742;2024-01-27T00:34:45;103478.00;;;4.23;100.00
54882;BME280;40775;51.448;4.742;2024-01-27T00:37:13;103479.19;;;4.27;100.00
54882;BME280;40775;51.448;4.742;2024-01-27T00:39:40;103490.34;;;4.26;100.00
54882;BME280;40775;51.448;4.742;2024-01-27T00:42:07;103485.53;;;4.20;100.00
54882;BME280;40775;51.448;4.742;2024-01-27T00:44:34;103483.06;;;4.22;100.00
54882;BME280;40775;51.448;4.742;2024-01-27T00:47:02;103483.72;;;4.19;100.00
54882;BME280;40775;51.448;4.742;2024-01-27T00:49:30;103484.75;;;4.11;100.00
54882;BME280;40775;51.448;4.742;2024-01-27T00:51:57;103475.72;;;4.08;100.00
54882;BME280;40775;51.448;4.742;2024-01-27T00:54:24;103474.41;;;4.02;100.00
54882;BME280;40775;51.448;4.742;2024-01-27T00:56:52;103474.91;;;3.98;100.00
54882;BME280;40775;51.448;4.742;2024-01-27T00:59:20;103485.28;;;3.88;100.00
54882;BME280;40775;51.448;4.742;2024-01-27T01:01:47;103487.88;;;3.88;100.00
54882;BME280;40775;51.448;4.742;2024-01-27T01:04:14;103480.16;;;3.80;100.00
54882;BME280;40775;51.448;4.742;2024-01-27T01:06:41;103483.88;;;3.92;100.00
54882;BME280;40775;51.448;4.742;2024-01-27T01:09:08;103484.28;;;3.96;100.00
54882;BME280;40775;51.448;4.742;2024-01-27T01:11:35;103487.38;;;3.92;100.00
54882;BME280;40775;51.448;4.742;2024-01-27T01:14:06;103486.47;;;3.92;100.00
54882;BME280;40775;51.448;4.742;2024-01-27T01:16:33;103487.66;;;3.95;100.00
54882;BME280;40775;51.448;4.742;2024-01-27T01:19:00;103491.03;;;3.94;100.00
54882;BME280;40775;51.448;4.742;2024-01-27T01:21:27;103486.88;;;3.96;100.00
54882;BME280;40775;51.448;4.742;2024-01-27T01:23:55;103483.09;;;3.93;100.00
54882;BME280;40775;51.448;4.742;2024-01-27T01:26:23;103494.50;;;3.85;100.00
54882;BME280;40775;51.448;4.742;2024-01-27T01:28:51;103496.66;;;3.80;100.00
54882;BME280;40775;51.448;4.742;2024-01-27T01:31:18;103492.50;;;3.82;100.00
54882;BME280;40775;51.448;4.742;2024-01-27T01:33:45;103498.06;;;3.77;100.00
54882;BME280;40775;51.448;4.742;2024-01-27T01:36:12;103502.22;;;3.75;100.00
54882;BME280;40775;51.448;4.742;2024-01-27T01:38:39;103493.28;;;3.81;100.00
54882;BME280;40775;51.448;4.742;2024-01-27T01:41:07;103484.44;;;3.79;100.00
54882;BME280;40775;51.448;4.742;2024-01-27T01:43:34;103492.22;;;3.79;100.00
54882;BME280;40775;51.448;4.742;2024-01-27T01:46:01;103501.72;;;3.79;100.00
54882;BME280;40775;51.448;4.742;2024-01-27T01:48:29;103501.84;;;3.80;100.00
54882;BME280;40775;51.448;4.742;2024-01-27T01:50:58;103499.75;;;3.76;100.00
54882;BME280;40775;51.448;4.742;2024-01-27T01:53:26;103496.09;;;3.74;100.00
54882;BME280;40775;51.448;4.742;2024-01-27T01:55:55;103499.56;;;3.64;100.00
54882;BME280;40775;51.448;4.742;2024-01-27T01:58:22;103501.38;;;3.65;100.00
54882;BME280;40775;51.448;4.742;2024-01-27T02:00:49;103499.44;;;3.63;100.00
54882;BME280;40775;51.448;4.742;2024-01-27T02:03:17;103503.84;;;3.64;100.00
54882;BME280;40775;51.448;4.742;2024-01-27T02:05:44;103498.09;;;3.58;100.00
54882;BME280;40775;51.448;4.742;2024-01-27T02:08:11;103496.28;;;3.57;100.00
54882;BME280;40775;51.448;4.742;2024-01-27T02:10:38;103489.22;;;3.56;100.00
54882;BME280;40775;51.448;4.742;2024-01-27T02:13:22;103499.63;;;3.56;100.00
54882;BME280;40775;51.448;4.742;2024-01-27T02:15:50;103497.78;;;3.55;100.00
54882;BME280;40775;51.448;4.742;2024-01-27T02:18:17;103489.88;;;3.53;100.00
54882;BME280;40775;51.448;4.742;2024-01-27T02:20:45;103497.66;;;3.53;100.00
54882;BME280;40775;51.448;4.742;2024-01-27T02:23:12;103494.72;;;3.59;100.00
54882;BME280;40775;51.448;4.742;2024-01-27T02:25:40;103489.22;;;3.56;100.00
54882;BME280;40775;51.448;4.742;2024-01-27T02:28:07;103493.19;;;3.61;100.00
54882;BME280;40775;51.448;4.742;2024-01-27T02:30:34;103500.88;;;3.51;100.00
54882;BME280;40775;51.448;4.742;2024-01-27T02:33:02;103503.75;;;3.54;100.00
54882;BME280;40775;51.448;4.742;2024-01-27T02:35:29;103512.78;;;3.57;100.00
54882;BME280;40775;51.448;4.742;2024-01-27T02:37:56;103501.53;;;3.48;100.00
54882;BME280;40775;51.448;4.742;2024-01-27T02:40:23;103497.03;;;3.56;100.00
54882;BME280;40775;51.448;4.742;2024-01-27T02:42:50;103496.59;;;3.51;100.00
54882;BME280;40775;51.448;4.742;2024-01-27T02:45:17;103498.03;;;3.48;100.00
54882;BME280;40775;51.448;4.742;2024-01-27T02:47:44;103500.97;;;3.42;100.00
54882;BME280;40775;51.448;4.742;2024-01-27T02:50:12;103504.19;;;3.39;100.00
54882;BME280;40775;51.448;4.742;2024-01-27T02:52:39;103509.41;;;3.39;100.00
54882;BME280;40775;51.448;4.742;2024-01-27T02:55:07;103519.00;;;3.40;100.00
54882;BME280;40775;51.448;4.742;2024-01-27T02:57:34;103520.63;;;3.30;100.00
54882;BME280;40775;51.448;4.742;2024-01-27T03:00:01;103524.00;;;3.29;100.00
54882;BME280;40775;51.448;4.742;2024-01-27T03:02:28;103513.31;;;3.26;100.00
54882;BME280;40775;51.448;4.742;2024-01-27T03:04:55;103512.09;;;3.22;100.00
54882;BME280;40775;51.448;4.742;2024-01-27T03:07:22;103517.88;;;3.28;100.00
54882;BME280;40775;51.448;4.742;2024-01-27T03:09:49;103514.84;;;3.24;100.00
54882;BME280;40775;51.448;4.742;2024-01-27T03:12:17;103508.47;;;3.20;100.00
54882;BME280;40775;51.448;4.742;2024-01-27T03:14:45;103520.88;;;3.14;100.00
54882;BME280;40775;51.448;4.742;2024-01-27T03:17:13;103526.34;;;3.17;100.00
54882;BME280;40775;51.448;4.742;2024-01-27T03:19:40;103533.38;;;3.18;100.00
54882;BME280;40775;51.448;4.742;2024-01-27T03:22:07;103530.50;;;3.15;100.00
54882;BME280;40775;51.448;4.742;2024-01-27T03:24:34;103528.47;;;3.21;100.00
54882;BME280;40775;51.448;4.742;2024-01-27T03:27:01;103519.72;;;3.29;100.00
54882;BME280;40775;51.448;4.742;2024-01-27T03:29:28;103524.75;;;3.28;100.00
54882;BME280;40775;51.448;4.742;2024-01-27T03:31:55;103522.78;;;3.25;100.00
54882;BME280;40775;51.448;4.742;2024-01-27T03:34:23;103519.13;;;3.23;100.00
54882;BME280;40775;51.448;4.742;2024-01-27T03:36:52;103518.84;;;3.20;100.00
54882;BME280;40775;51.448;4.742;2024-01-27T03:39:19;103514.28;;;3.18;100.00
54882;BME280;40775;51.448;4.742;2024-01-27T03:41:46;103522.84;;;3.17;100.00
54882;BME280;40775;51.448;4.742;2024-01-27T03:44:13;103518.00;;;3.11;100.00
54882;BME280;40775;51.448;4.742;2024-01-27T03:46:40;103511.56;;;3.16;100.00
54882;BME280;40775;51.448;4.742;2024-01-27T03:49:07;103509.78;;;3.06;100.00
54882;BME280;40775;51.448;4.742;2024-01-27T03:51:35;103507.34;;;3.08;100.00
54882;BME280;40775;51.448;4.742;2024-01-27T03:54:02;103503.69;;;3.06;100.00
54882;BME280;40775;51.448;4.742;2024-01-27T03:56:29;103502.31;;;3.01;100.00
54882;BME280;40775;51.448;4.742;2024-01-27T03:58:56;103501.28;;;2.99;100.00
54882;BME280;40775;51.448;4.742;2024-01-27T04:01:23;103506.66;;;2.92;100.00
54882;BME280;40775;51.448;4.742;2024-01-27T04:03:50;103503.00;;;2.90;100.00
54882;BME280;40775;51.448;4.742;2024-01-27T04:06:17;103513.47;;;3.00;100.00
54882;BME280;40775;51.448;4.742;2024-01-27T04:08:44;103508.69;;;2.86;100.00
54882;BME280;40775;51.448;4.742;2024-01-27T04:11:22;103515.56;;;2.85;100.00
54882;BME280;40775;51.448;4.742;2024-01-27T04:13:50;103521.19;;;2.90;100.00
54882;BME280;40775;51.448;4.742;2024-01-27T04:16:17;103521.81;;;2.87;100.00
54882;BME280;40775;51.448;4.742;2024-01-27T04:18:44;103522.00;;;2.80;100.00
54882;BME280;40775;51.448;4.742;2024-01-27T04:21:12;103527.34;;;2.82;100.00
54882;BME280;40775;51.448;4.742;2024-01-27T04:23:39;103530.41;;;2.77;100.00
54882;BME280;40775;51.448;4.742;2024-01-27T04:26:06;103532.53;;;2.73;100.00
54882;BME280;40775;51.448;4.742;2024-01-27T04:28:33;103534.09;;;2.71;100.00
54882;BME280;40775;51.448;4.742;2024-01-27T04:31:00;103537.56;;;2.80;100.00
54882;BME280;40775;51.448;4.742;2024-01-27T04:33:27;103533.28;;;2.81;100.00
54882;BME280;40775;51.448;4.742;2024-01-27T04:35:55;103533.56;;;2.84;100.00
54882;BME280;40775;51.448;4.742;2024-01-27T04:38:22;103524.88;;;2.83;100.00
54882;BME280;40775;51.448;4.742;2024-01-27T04:40:50;103525.31;;;2.88;100.00
54882;BME280;40775;51.448;4.742;2024-01-27T04:43:19;103524.88;;;2.83;100.00
54882;BME280;40775;51.448;4.742;2024-01-27T04:45:49;103523.00;;;2.91;100.00
54882;BME280;40775;51.448;4.742;2024-01-27T04:48:17;103523.06;;;2.82;100.00
54882;BME280;40775;51.448;4.742;2024-01-27T04:50:44;103525.22;;;2.77;100.00
54882;BME280;40775;51.448;4.742;2024-01-27T04:53:11;103524.75;;;2.82;100.00
54882;BME280;40775;51.448;4.742;2024-01-27T04:55:41;103522.78;;;2.79;100.00
54882;BME280;40775;51.448;4.742;2024-01-27T04:58:09;103515.41;;;2.84;100.00
54882;BME280;40775;51.448;4.742;2024-01-27T05:00:36;103519.69;;;2.83;100.00
54882;BME280;40775;51.448;4.742;2024-01-27T05:03:03;103520.34;;;2.72;100.00
54882;BME280;40775;51.448;4.742;2024-01-27T05:05:34;103520.66;;;2.75;100.00
54882;BME280;40775;51.448;4.742;2024-01-27T05:08:03;103513.59;;;2.83;100.00
54882;BME280;40775;51.448;4.742;2024-01-27T05:10:30;103521.88;;;2.78;100.00
54882;BME280;40775;51.448;4.742;2024-01-27T05:12:57;103520.34;;;2.72;100.00
54882;BME280;40775;51.448;4.742;2024-01-27T05:15:24;103518.06;;;2.75;100.00
54882;BME280;40775;51.448;4.742;2024-01-27T05:17:52;103510.44;;;2.68;100.00
54882;BME280;40775;51.448;4.742;2024-01-27T05:20:19;103507.84;;;2.68;100.00
54882;BME280;40775;51.448;4.742;2024-01-27T05:22:46;103506.81;;;2.66;100.00
54882;BME280;40775;51.448;4.742;2024-01-27T05:25:13;103510.59;;;2.69;100.00
54882;BME280;40775;51.448;4.742;2024-01-27T05:27:40;103507.72;;;2.66;100.00
54882;BME280;40775;51.448;4.742;2024-01-27T05:30:08;103516.59;;;2.60;100.00
54882;BME280;40775;51.448;4.742;2024-01-27T05:32:36;103512.75;;;2.65;100.00
54882;BME280;40775;51.448;4.742;2024-01-27T05:35:03;103521.16;;;2.62;100.00
54882;BME280;40775;51.448;4.742;2024-01-27T05:37:32;103515.84;;;2.61;100.00
54882;BME280;40775;51.448;4.742;2024-01-27T05:39:59;103514.00;;;2.60;100.00
54882;BME280;40775;51.448;4.742;2024-01-27T05:42:26;103511.25;;;2.58;100.00
54882;BME280;40775;51.448;4.742;2024-01-27T05:44:53;103512.59;;;2.63;100.00
54882;BME280;40775;51.448;4.742;2024-01-27T05:47:20;103513.03;;;2.68;100.00
54882;BME280;40775;51.448;4.742;2024-01-27T05:49:47;103515.00;;;2.70;100.00
54882;BME280;40775;51.448;4.742;2024-01-27T05:52:14;103509.38;;;2.74;100.00
54882;BME280;40775;51.448;4.742;2024-01-27T05:54:52;103521.88;;;2.78;100.00
54882;BME280;40775;51.448;4.742;2024-01-27T05:57:20;103510.88;;;2.72;100.00
54882;BME280;40775;51.448;4.742;2024-01-27T05:59:47;103518.84;;;2.74;100.00
54882;BME280;40775;51.448;4.742;2024-01-27T06:02:14;103518.38;;;2.69;100.00
54882;BME280;40775;51.448;4.742;2024-01-27T06:04:41;103519.41;;;2.80;100.00
54882;BME280;40775;51.448;4.742;2024-01-27T06:07:08;103513.44;;;2.81;100.00
54882;BME280;40775;51.448;4.742;2024-01-27T06:09:37;103515.69;;;2.87;100.00
54882;BME280;40775;51.448;4.742;2024-01-27T06:12:05;103509.94;;;2.81;100.00
54882;BME280;40775;51.448;4.742;2024-01-27T06:14:32;103520.31;;;2.81;100.00
54882;BME280;40775;51.448;4.742;2024-01-27T06:16:59;103504.47;;;2.77;100.00
54882;BME280;40775;51.448;4.742;2024-01-27T06:19:27;103508.13;;;2.71;100.00
54882;BME280;40775;51.448;4.742;2024-01-27T06:21:54;103505.53;;;2.71;100.00
54882;BME280;40775;51.448;4.742;2024-01-27T06:24:21;103505.25;;;2.68;100.00
54882;BME280;40775;51.448;4.742;2024-01-27T06:26:48;103518.50;;;2.71;100.00
54882;BME280;40775;51.448;4.742;2024-01-27T06:29:16;103522.38;;;2.66;100.00
54882;BME280;40775;51.448;4.742;2024-01-27T06:31:43;103526.16;;;2.69;100.00
54882;BME280;40775;51.448;4.742;2024-01-27T06:34:10;103524.94;;;2.74;100.00
54882;BME280;40775;51.448;4.742;2024-01-27T06:36:37;103523.28;;;2.66;100.00
54882;BME280;40775;51.448;4.742;2024-01-27T06:39:04;103531.06;;;2.66;100.00
54882;BME280;40775;51.448;4.742;2024-01-27T06:41:31;103537.28;;;2.68;100.00
54882;BME280;40775;51.448;4.742;2024-01-27T06:43:58;103552.09;;;2.69;100.00
54882;BME280;40775;51.448;4.742;2024-01-27T06:46:25;103547.06;;;2.71;100.00
54882;BME280;40775;51.448;4.742;2024-01-27T06:48:52;103555.16;;;2.74;100.00
54882;BME280;40775;51.448;4.742;2024-01-27T06:51:19;103554.03;;;2.81;100.00
54882;BME280;40775;51.448;4.742;2024-01-27T06:53:46;103551.13;;;2.86;100.00
54882;BME280;40775;51.448;4.742;2024-01-27T06:56:15;103546.75;;;2.76;100.00
54882;BME280;40775;51.448;4.742;2024-01-27T06:58:42;103548.28;;;2.74;100.00
54882;BME280;40775;51.448;4.742;2024-01-27T07:01:09;103562.44;;;2.78;100.00
54882;BME280;40775;51.448;4.742;2024-01-27T07:03:36;103563.84;;;2.74;100.00
54882;BME280;40775;51.448;4.742;2024-01-27T07:06:06;103570.09;;;2.76;100.00
54882;BME280;40775;51.448;4.742;2024-01-27T07:08:34;103566.44;;;2.74;100.00
54882;BME280;40775;51.448;4.742;2024-01-27T07:11:04;103555.16;;;2.74;100.00
54882;BME280;40775;51.448;4.742;2024-01-27T07:13:32;103553.47;;;2.74;100.00
54882;BME280;40775;51.448;4.742;2024-01-27T07:15:59;103547.06;;;2.71;100.00
54882;BME280;40775;51.448;4.742;2024-01-27T07:18:26;103540.78;;;2.77;100.00
54882;BME280;40775;51.448;4.742;2024-01-27T07:20:54;103533.66;;;2.66;100.00
54882;BME280;40775;51.448;4.742;2024-01-27T07:23:22;103531.34;;;2.69;100.00
54882;BME280;40775;51.448;4.742;2024-01-27T07:25:49;103541.91;;;2.62;100.00
54882;BME280;40775;51.448;4.742;2024-01-27T07:28:16;103548.91;;;2.63;100.00
54882;BME280;40775;51.448;4.742;2024-01-27T07:30:45;103542.69;;;2.61;100.00
54882;BME280;40775;51.448;4.742;2024-01-27T07:33:13;103547.13;;;2.54;100.00
54882;BME280;40775;51.448;4.742;2024-01-27T07:35:40;103544.84;;;2.57;100.00
54882;BME280;40775;51.448;4.742;2024-01-27T07:38:07;103547.28;;;2.55;100.00
54882;BME280;40775;51.448;4.742;2024-01-27T07:40:35;103543.63;;;2.53;100.00
54882;BME280;40775;51.448;4.742;2024-01-27T07:43:02;103535.72;;;2.52;100.00
54882;BME280;40775;51.448;4.742;2024-01-27T07:45:30;103544.53;;;2.54;100.00
54882;BME280;40775;51.448;4.742;2024-01-27T07:47:58;103534.31;;;2.55;100.00
54882;BME280;40775;51.448;4.742;2024-01-27T07:50:28;103540.91;;;2.52;100.00
54882;BME280;40775;51.448;4.742;2024-01-27T07:52:55;103543.31;;;2.59;100.00
54882;BME280;40775;51.448;4.742;2024-01-27T07:55:22;103545.13;;;2.60;100.00
54882;BME280;40775;51.448;4.742;2024-01-27T07:57:49;103537.50;;;2.61;100.00
54882;BME280;40775;51.448;4.742;2024-01-27T08:00:16;103546.81;;;2.59;100.00
54882;BME280;40775;51.448;4.742;2024-01-27T08:02:44;103543.44;;;2.60;100.00
54882;BME280;40775;51.448;4.742;2024-01-27T08:05:11;103547.38;;;2.65;100.00
54882;BME280;40775;51.448;4.742;2024-01-27T08:07:38;103558.53;;;2.64;100.00
54882;BME280;40775;51.448;4.742;2024-01-27T08:10:05;103554.88;;;2.62;100.00
54882;BME280;40775;51.448;4.742;2024-01-27T08:12:32;103549.84;;;2.64;100.00
54882;BME280;40775;51.448;4.742;2024-01-27T08:15:00;103549.09;;;2.56;100.00
54882;BME280;40775;51.448;4.742;2024-01-27T08:17:27;103559.34;;;2.55;100.00
54882;BME280;40775;51.448;4.742;2024-01-27T08:19:54;103561.31;;;2.57;100.00
54882;BME280;40775;51.448;4.742;2024-01-27T08:22:21;103562.22;;;2.58;100.00
54882;BME280;40775;51.448;4.742;2024-01-27T08:24:48;103565.88;;;2.60;100.00
54882;BME280;40775;51.448;4.742;2024-01-27T08:27:15;103569.19;;;2.67;100.00
54882;BME280;40775;51.448;4.742;2024-01-27T08:29:42;103568.13;;;2.74;100.00
54882;BME280;40775;51.448;4.742;2024-01-27T08:32:09;103556.34;;;2.77;100.00
54882;BME280;40775;51.448;4.742;2024-01-27T08:34:36;103556.59;;;2.89;100.00
54882;BME280;40775;51.448;4.742;2024-01-27T08:37:20;103558.06;;;2.96;100.00
54882;BME280;40775;51.448;4.742;2024-01-27T08:39:47;103558.69;;;2.93;100.00
54882;BME280;40775;51.448;4.742;2024-01-27T08:42:16;103573.16;;;3.00;100.00
54882;BME280;40775;51.448;4.742;2024-01-27T08:44:43;103570.88;;;3.03;100.00
54882;BME280;40775;51.448;4.742;2024-01-27T08:47:10;103577.41;;;3.08;100.00
54882;BME280;40775;51.448;4.742;2024-01-27T08:49:37;103584.56;;;3.10;100.00
54882;BME280;40775;51.448;4.742;2024-01-27T08:52:04;103579.94;;;3.17;100.00
54882;BME280;40775;51.448;4.742;2024-01-27T08:54:32;103577.34;;;3.17;100.00
54882;BME280;40775;51.448;4.742;2024-01-27T08:56:59;103572.88;;;3.24;100.00
54882;BME280;40775;51.448;4.742;2024-01-27T08:59:26;103577.28;;;3.25;100.00
54882;BME280;40775;51.448;4.742;2024-01-27T09:01:53;103573.66;;;3.23;100.00
54882;BME280;40775;51.448;4.742;2024-01-27T09:04:20;103570.56;;;3.27;100.00
54882;BME280;40775;51.448;4.742;2024-01-27T09:06:47;103569.97;;;3.30;100.00
54882;BME280;40775;51.448;4.742;2024-01-27T09:09:15;103577.97;;;3.41;100.00
54882;BME280;40775;51.448;4.742;2024-01-27T09:11:42;103578.53;;;3.48;100.00
54882;BME280;40775;51.448;4.742;2024-01-27T09:14:09;103580.22;;;3.47;100.00
54882;BME280;40775;51.448;4.742;2024-01-27T09:16:36;103591.31;;;3.55;100.00
54882;BME280;40775;51.448;4.742;2024-01-27T09:19:03;103597.72;;;3.58;100.00
54882;BME280;40775;51.448;4.742;2024-01-27T09:21:31;103589.09;;;3.68;100.00
54882;BME280;40775;51.448;4.742;2024-01-27T09:24:00;103585.16;;;3.63;100.00
54882;BME280;40775;51.448;4.742;2024-01-27T09:26:29;103587.88;;;3.64;100.00
54882;BME280;40775;51.448;4.742;2024-01-27T09:28:56;103605.00;;;3.81;100.00
54882;BME280;40775;51.448;4.742;2024-01-27T09:31:24;103610.78;;;3.87;100.00
54882;BME280;40775;51.448;4.742;2024-01-27T09:33:53;103617.19;;;3.91;100.00
54882;BME280;40775;51.448;4.742;2024-01-27T09:36:21;103609.94;;;3.97;100.00
54882;BME280;40775;51.448;4.742;2024-01-27T09:38:49;103611.13;;;4.00;100.00
54882;BME280;40775;51.448;4.742;2024-01-27T09:41:16;103612.59;;;4.07;100.00
54882;BME280;40775;51.448;4.742;2024-01-27T09:43:45;103615.06;;;4.06;100.00
54882;BME280;40775;51.448;4.742;2024-01-27T09:46:13;103618.69;;;4.08;100.00
54882;BME280;40775;51.448;4.742;2024-01-27T09:48:41;103617.72;;;4.16;100.00
54882;BME280;40775;51.448;4.742;2024-01-27T09:51:10;103623.75;;;4.25;100.00
54882;BME280;40775;51.448;4.742;2024-01-27T09:53:38;103616.63;;;4.32;100.00
54882;BME280;40775;51.448;4.742;2024-01-27T09:56:06;103629.97;;;4.46;100.00
54882;BME280;40775;51.448;4.742;2024-01-27T09:58:34;103631.16;;;4.49;100.00
54882;BME280;40775;51.448;4.742;2024-01-27T10:01:01;103625.19;;;4.50;100.00
54882;BME280;40775;51.448;4.742;2024-01-27T10:03:30;103624.44;;;4.61;100.00
54882;BME280;40775;51.448;4.742;2024-01-27T10:05:57;103628.38;;;4.67;100.00
54882;BME280;40775;51.448;4.742;2024-01-27T10:08:25;103629.06;;;4.74;100.00
54882;BME280;40775;51.448;4.742;2024-01-27T10:10:55;103634.16;;;4.83;100.00
54882;BME280;40775;51.448;4.742;2024-01-27T10:13:25;103639.38;;;4.93;100.00
54882;BME280;40775;51.448;4.742;2024-01-27T10:16:02;103643.84;;;4.94;100.00
54882;BME280;40775;51.448;4.742;2024-01-27T10:18:31;103637.88;;;5.05;100.00
54882;BME280;40775;51.448;4.742;2024-01-27T10:20:59;103641.66;;;5.19;100.00
54882;BME280;40775;51.448;4.742;2024-01-27T10:23:26;103657.16;;;5.17;100.00
54882;BME280;40775;51.448;4.742;2024-01-27T10:25:54;103654.97;;;5.32;100.00
54882;BME280;40775;51.448;4.742;2024-01-27T10:28:24;103656.41;;;5.28;100.00
54882;BME280;40775;51.448;4.742;2024-01-27T10:30:52;103655.09;;;5.34;100.00
54882;BME280;40775;51.448;4.742;2024-01-27T10:33:19;103652.41;;;5.52;100.00
54882;BME280;40775;51.448;4.742;2024-01-27T10:35:47;103655.00;;;5.63;100.00
54882;BME280;40775;51.448;4.742;2024-01-27T10:38:42;103645.78;;;5.76;100.00
54882;BME280;40775;51.448;4.742;2024-01-27T10:41:10;103636.50;;;5.80;100.00
54882;BME280;40775;51.448;4.742;2024-01-27T10:43:39;103644.59;;;5.93;100.00
54882;BME280;40775;51.448;4.742;2024-01-27T10:46:08;103636.13;;;5.96;100.00
54882;BME280;40775;51.448;4.742;2024-01-27T10:48:36;103639.09;;;6.00;100.00
54882;BME280;40775;51.448;4.742;2024-01-27T10:51:09;103638.19;;;6.00;100.00
54882;BME280;40775;51.448;4.742;2024-01-27T10:53:37;103640.41;;;6.05;100.00
54882;BME280;40775;51.448;4.742;2024-01-27T10:56:07;103637.50;;;6.23;100.00
54882;BME280;40775;51.448;4.742;2024-01-27T10:58:37;103629.91;;;6.26;100.00
54882;BME280;40775;51.448;4.742;2024-01-27T11:01:11;103638.16;;;6.30;100.00
54882;BME280;40775;51.448;4.742;2024-01-27T11:03:40;103635.75;;;6.43;100.00
54882;BME280;40775;51.448;4.742;2024-01-27T11:06:09;103637.91;;;6.59;100.00
54882;BME280;40775;51.448;4.742;2024-01-27T11:08:39;103631.25;;;6.63;100.00
54882;BME280;40775;51.448;4.742;2024-01-27T11:11:10;103633.84;;;6.63;100.00
54882;BME280;40775;51.448;4.742;2024-01-27T11:13:39;103626.75;;;6.72;100.00
54882;BME280;40775;51.448;4.742;2024-01-27T11:16:18;103626.56;;;6.80;100.00
54882;BME280;40775;51.448;4.742;2024-01-27T11:18:46;103618.47;;;6.88;100.00
54882;BME280;40775;51.448;4.742;2024-01-27T11:21:16;103613.72;;;6.94;100.00
54882;BME280;40775;51.448;4.742;2024-01-27T11:23:44;103604.78;;;7.02;100.00
54882;BME280;40775;51.448;4.742;2024-01-27T11:26:22;103603.56;;;7.08;100.00
54882;BME280;40775;51.448;4.742;2024-01-27T11:28:50;103610.47;;;7.08;100.00
54882;BME280;40775;51.448;4.742;2024-01-27T11:31:18;103612.25;;;7.19;100.00
54882;BME280;40775;51.448;4.742;2024-01-27T11:33:50;103611.03;;;7.26;100.00
54882;BME280;40775;51.448;4.742;2024-01-27T11:36:22;103605.59;;;7.34;100.00
54882;BME280;40775;51.448;4.742;2024-01-27T11:38:52;103610.16;;;7.37;100.00
54882;BME280;40775;51.448;4.742;2024-01-27T11:41:27;103609.47;;;7.39;100.00
54882;BME280;40775;51.448;4.742;2024-01-27T11:43:57;103604.84;;;7.47;100.00
54882;BME280;40775;51.448;4.742;2024-01-27T11:46:25;103600.31;;;7.44;100.00
54882;BME280;40775;51.448;4.742;2024-01-27T11:48:53;103596.91;;;7.57;100.00
54882;BME280;40775;51.448;4.742;2024-01-27T11:51:20;103597.25;;;7.62;100.00
54882;BME280;40775;51.448;4.742;2024-01-27T11:53:47;103590.44;;;7.64;100.00
54882;BME280;40775;51.448;4.742;2024-01-27T11:56:14;103584.00;;;7.70;100.00
54882;BME280;40775;51.448;4.742;2024-01-27T11:58:49;103586.38;;;7.79;100.00
54882;BME280;40775;51.448;4.742;2024-01-27T12:01:17;103566.72;;;7.84;100.00
54882;BME280;40775;51.448;4.742;2024-01-27T12:03:44;103585.03;;;7.84;100.00
54882;BME280;40775;51.448;4.742;2024-01-27T12:06:12;103578.44;;;7.89;100.00
54882;BME280;40775;51.448;4.742;2024-01-27T12:08:42;103573.31;;;7.91;100.00
54882;BME280;40775;51.448;4.742;2024-01-27T12:11:17;103570.00;;;7.93;100.00
54882;BME280;40775;51.448;4.742;2024-01-27T12:13:51;103560.13;;;8.01;100.00
54882;BME280;40775;51.448;4.742;2024-01-27T12:16:18;103566.16;;;8.00;100.00
54882;BME280;40775;51.448;4.742;2024-01-27T12:18:45;103554.09;;;8.02;100.00
54882;BME280;40775;51.448;4.742;2024-01-27T12:21:13;103549.22;;;8.06;100.00
54882;BME280;40775;51.448;4.742;2024-01-27T12:23:58;103547.94;;;8.13;100.00
54882;BME280;40775;51.448;4.742;2024-01-27T12:26:30;103553.19;;;8.13;100.00
54882;BME280;40775;51.448;4.742;2024-01-27T12:28:59;103543.03;;;8.18;100.00
54882;BME280;40775;51.448;4.742;2024-01-27T12:31:27;103537.81;;;8.29;100.00
54882;BME280;40775;51.448;4.742;2024-01-27T12:33:56;103538.94;;;8.33;100.00
54882;BME280;40775;51.448;4.742;2024-01-27T12:36:24;103532.69;;;8.43;100.00
54882;BME280;40775;51.448;4.742;2024-01-27T12:39:00;103532.25;;;8.36;100.00
54882;BME280;40775;51.448;4.742;2024-01-27T12:41:28;103527.66;;;8.46;100.00
54882;BME280;40775;51.448;4.742;2024-01-27T12:43:56;103521.31;;;8.42;100.00
54882;BME280;40775;51.448;4.742;2024-01-27T12:46:24;103512.97;;;8.48;100.00
54882;BME280;40775;51.448;4.742;2024-01-27T12:48:51;103506.38;;;8.53;100.00
54882;BME280;40775;51.448;4.742;2024-01-27T12:51:19;103501.78;;;8.62;100.00
54882;BME280;40775;51.448;4.742;2024-01-27T12:53:46;103490.50;;;8.63;100.00